Summer Shade, KY (42166)

3:32 PM CST on December 17, 2014 (GMT -0600)
Center Point Ky | Change Station
CLOSE
Current Station
Personal Weather Station
Location: Tompkinsville, KY
Elevation: 740 ft
Nearby Weather Stations
Active Advisory: Special Statement

Elev 740 ft 36.72 °N, 85.51 °W | Updated 8 minutes ago

Clear
Clear
39.6 °F
Feels Like 35 °F
N
6.3
Wind Variable Wind from SSW

Today
High -- | Low -- °F
--% Chance of Precip.
Yesterday
High -- | Low -- °F
Precip. -- in
6:49 AM 4:28 PM
Waning Crescent, 19% visible
Pressure 30.23 in
Visibility 10.0 miles
Clouds Clear
Windchill 35 °F
Dew Point 30 °F
Humidity 69%
Rainfall 0.00 in
Snow Depth Not available.
UV 1 out of 12
Pollen .10 out of 12
Air Quality Not available.
Flu Activity Not available.
METAR KGLW 172115Z AUTO 25004KT 10SM CLR 04/M03 A3023 RMK AO2 T00361026

More Conditions Fewer Conditions

Pressure 30.23 in
Visibility 10.0 miles
Clouds Clear
Windchill 35 °F
Dew Point 30 °F
Humidity 69%
Rainfall 0.00 in
Snow Depth Not available.
UV 1 out of 12
Pollen .10 out of 12
Air Quality Not available.
Flu Activity Not available.
METAR KGLW 172115Z AUTO 25004KT 10SM CLR 04/M03 A3023 RMK AO2 T00361026

More Conditions Fewer Conditions

10-Day Weather Forecast

Almanac

Astronomy

Dec. 17, 2014 Rise Set
Actual Time
Civil Twilight
Nautical Twilight
Astronomical Twilight
Moon
Length of Visible Light
Length of Day
Tomorrow will be .
, % of the Moon is Illuminated

Today's Extremes

State Highs State Lows

Community

WunderPhotos

Upload Photos

1,778,807 photos uploaded!

WunderBlogs® & News

Nearby

Air Quality

  Air Quality AQ Index Pollutant
Not available.

Snow Depth

Station Depth Elevation

Earthquake Activity

City Distance Mag. Time & Date
Minimum magnitude displayed is 2.5.

Coastal Water Temperatures

Place Temperature

Nearby Weather Stations